Rechercher aéroport 
image banner adimage banner adimage banner ad
image banner ad

53CN - Thayer Aviation

Situé à Grimes, United States

ICAO - 53CN, IATA -

Données fournies par Airmate  

Information générale

Coordonnées: N39°4'30" W121°55'4"
Élévation : 54 feet MSL.
Variation magnétique : 16° East
Voir autres Aéroports à California

Données opérationnelles

Special qualification required
Heure actuelle UTC:
Heure actuelle locale:
Météo à : KMYV - Yuba County ( 30 km )
METAR: KMYV 251153Z AUTO 16004KT 10SM CLR 20/08 A2987 RMK AO2 SLP117 T02000083 10272 20200 53007
Voir NOTAMs / SUP AIP / TFR affectant cet aéroport [VIEW]
Fréquences de communication: [VIEW]

Pistes:

Identifiant RWYQFULongueur (ft)Largeur (ft)SurfaceLDA (ft)
NW180060ASPH
SE180060ASPH

Coordonnées de l'aéroport

Adresse: Grimes United States

Vue satellite de 53CN